createdAt,value
2022-10-02T00:02:36.084Z,-75
2022-10-02T00:07:50.335Z,-80
2022-10-02T00:13:02.075Z,-76
2022-10-02T00:18:19.281Z,-74
2022-10-02T00:23:37.865Z,-79
2022-10-02T00:28:46.778Z,-85
2022-10-02T00:34:09.989Z,-78
2022-10-02T00:39:46.556Z,-79
2022-10-02T00:45:19.873Z,-75
2022-10-02T00:51:05.951Z,-79
2022-10-02T00:56:41.976Z,-76
2022-10-02T01:01:54.130Z,-66
2022-10-02T01:06:56.525Z,-67
2022-10-02T01:11:59.485Z,-69
2022-10-02T01:17:02.611Z,-67
2022-10-02T01:22:17.502Z,-68
2022-10-02T01:27:19.785Z,-71
2022-10-02T01:32:25.992Z,-68
2022-10-02T01:37:31.341Z,-67
2022-10-02T01:42:34.184Z,-67
2022-10-02T01:47:50.807Z,-74
2022-10-02T01:53:15.730Z,-68
2022-10-02T01:58:45.904Z,-80
2022-10-02T02:04:15.293Z,-77
2022-10-02T02:09:33.848Z,-79
2022-10-02T02:14:42.320Z,-66
2022-10-02T02:19:59.765Z,-69
2022-10-02T02:25:12.129Z,-68
2022-10-02T02:30:15.293Z,-67
2022-10-02T02:35:33.771Z,-68
2022-10-02T02:40:41.860Z,-77
2022-10-02T02:46:00.012Z,-68
2022-10-02T02:51:09.487Z,-75
2022-10-02T02:56:16.157Z,-75
2022-10-02T03:01:18.053Z,-72
2022-10-02T03:06:31.573Z,-68
2022-10-02T03:11:48.482Z,-68
2022-10-02T03:17:10.880Z,-68
2022-10-02T03:22:21.832Z,-67
2022-10-02T03:27:32.598Z,-71
2022-10-02T03:32:39.291Z,-68
2022-10-02T03:37:43.592Z,-67
2022-10-02T03:42:45.571Z,-68
2022-10-02T03:47:47.593Z,-67
2022-10-02T03:52:51.871Z,-67
2022-10-02T03:57:55.021Z,-73
2022-10-02T04:02:58.948Z,-68
2022-10-02T04:08:09.405Z,-81
2022-10-02T04:13:20.521Z,-80
2022-10-02T04:18:38.743Z,-67
2022-10-02T04:23:50.497Z,-67
2022-10-02T04:29:01.061Z,-71
2022-10-02T04:34:07.708Z,-67
2022-10-02T04:39:15.658Z,-80
2022-10-02T04:44:31.053Z,-78
2022-10-02T04:50:14.970Z,-76
2022-10-02T04:55:57.149Z,-85
2022-10-02T05:01:09.341Z,-81
2022-10-02T05:06:24.581Z,-67
2022-10-02T05:11:38.429Z,-73
2022-10-02T05:17:03.804Z,-68
2022-10-02T05:22:08.470Z,-76
2022-10-02T05:27:19.531Z,-73
2022-10-02T05:32:33.460Z,-68
2022-10-02T05:37:35.224Z,-68
2022-10-02T05:42:47.808Z,-69
2022-10-02T05:48:09.973Z,-66
2022-10-02T05:53:31.645Z,-67
2022-10-02T05:58:56.641Z,-68
2022-10-02T06:04:24.345Z,-67
2022-10-02T06:10:23.116Z,-68
2022-10-02T06:15:32.501Z,-69
2022-10-02T06:20:40.722Z,-70
2022-10-02T06:25:56.266Z,-68
2022-10-02T06:31:21.777Z,-67
2022-10-02T06:36:52.733Z,-81
2022-10-02T06:41:57.390Z,-83
2022-10-02T06:47:17.692Z,-68
2022-10-02T06:52:45.026Z,-68
2022-10-02T07:03:51.081Z,-67
2022-10-02T07:09:23.353Z,-65
2022-10-02T07:15:05.952Z,-70
2022-10-02T07:20:38.624Z,-84
2022-10-02T07:26:18.986Z,-85
2022-10-02T07:31:32.788Z,-78
2022-10-02T07:37:08.782Z,-82
2022-10-02T07:42:17.631Z,-89
2022-10-02T07:47:44.383Z,-80
2022-10-02T07:53:20.425Z,-87
2022-10-02T07:58:36.912Z,-89
2022-10-02T08:03:50.249Z,-67
2022-10-02T08:09:14.462Z,-65
2022-10-02T08:14:38.252Z,-69
2022-10-02T08:19:45.976Z,-68
2022-10-02T08:24:53.841Z,-63
2022-10-02T08:29:59.949Z,-66
2022-10-02T08:35:05.993Z,-69
2022-10-02T08:40:19.883Z,-65
2022-10-02T08:45:36.929Z,-75
2022-10-02T08:51:18.551Z,-64
2022-10-02T08:57:01.693Z,-65
2022-10-02T09:02:11.236Z,-62
2022-10-02T09:07:26.008Z,-65
2022-10-02T09:13:11.250Z,-65
2022-10-02T09:18:17.803Z,-62
2022-10-02T09:23:38.130Z,-68
2022-10-02T09:29:28.112Z,-65
2022-10-02T09:34:52.330Z,-64
2022-10-02T09:40:09.864Z,-65
2022-10-02T09:45:44.022Z,-71
2022-10-02T09:51:19.840Z,-65
2022-10-02T09:56:25.551Z,-66
2022-10-02T10:01:45.951Z,-67
2022-10-02T10:06:54.133Z,-67
2022-10-02T10:12:14.605Z,-70
2022-10-02T10:17:25.654Z,-64
2022-10-02T10:22:39.062Z,-70
2022-10-02T10:27:59.309Z,-69
2022-10-02T10:33:27.967Z,-65
2022-10-02T10:38:52.189Z,-64
2022-10-02T10:44:18.721Z,-66
2022-10-02T10:49:36.060Z,-64
2022-10-02T10:54:45.080Z,-65
2022-10-02T11:00:17.937Z,-64
2022-10-02T11:05:47.448Z,-65
2022-10-02T11:11:19.820Z,-67
2022-10-02T11:16:30.972Z,-66
2022-10-02T11:21:44.808Z,-66
2022-10-02T11:26:49.292Z,-64
2022-10-02T11:31:57.087Z,-67
2022-10-02T11:37:24.327Z,-65
2022-10-02T11:42:58.158Z,-67
2022-10-02T11:48:20.212Z,-65
2022-10-02T11:54:03.316Z,-67
2022-10-02T11:59:30.716Z,-63
2022-10-02T12:05:04.474Z,-69
2022-10-02T12:10:45.120Z,-65
2022-10-02T12:16:26.366Z,-66
2022-10-02T12:21:50.030Z,-66
2022-10-02T12:27:17.333Z,-65
2022-10-02T12:32:57.165Z,-68
2022-10-02T12:38:27.058Z,-68
2022-10-02T12:43:59.230Z,-68
2022-10-02T12:49:20.906Z,-67
2022-10-02T12:54:37.803Z,-64
2022-10-02T12:59:55.785Z,-63
2022-10-02T13:05:28.082Z,-65
2022-10-02T13:10:57.365Z,-66
2022-10-02T13:16:34.500Z,-66
2022-10-02T13:21:48.217Z,-65
2022-10-02T13:27:02.409Z,-65
2022-10-02T13:32:25.823Z,-65
2022-10-02T13:37:43.701Z,-66
2022-10-02T13:43:05.920Z,-67
2022-10-02T13:48:19.682Z,-65
2022-10-02T13:53:30.622Z,-65
2022-10-02T13:58:58.386Z,-63
2022-10-02T14:04:30.038Z,-63
2022-10-02T14:09:48.367Z,-66
2022-10-02T14:15:08.938Z,-65
2022-10-02T14:20:29.533Z,-68
2022-10-02T14:25:53.333Z,-68
2022-10-02T14:31:21.896Z,-63
2022-10-02T14:36:32.288Z,-67
2022-10-02T14:41:58.811Z,-64
2022-10-02T14:47:17.196Z,-69
2022-10-02T14:52:27.902Z,-63
2022-10-02T14:57:29.787Z,-67
2022-10-02T15:02:54.594Z,-64
2022-10-02T15:07:57.738Z,-64
2022-10-02T15:13:10.545Z,-64
2022-10-02T15:18:58.130Z,-65
2022-10-02T15:24:25.710Z,-63
2022-10-02T15:29:36.832Z,-66
2022-10-02T15:34:55.331Z,-65
2022-10-02T15:40:19.268Z,-64
2022-10-02T15:45:33.530Z,-64
2022-10-02T15:50:47.577Z,-67
2022-10-02T15:55:55.863Z,-66
2022-10-02T16:01:39.239Z,-68
2022-10-02T16:07:10.221Z,-65
2022-10-02T16:12:27.299Z,-68
2022-10-02T16:17:48.587Z,-69
2022-10-02T16:22:58.591Z,-65
2022-10-02T16:28:06.531Z,-65
2022-10-02T16:33:17.005Z,-66
2022-10-02T16:38:25.160Z,-64
2022-10-02T16:43:34.791Z,-66
2022-10-02T16:49:01.481Z,-68
2022-10-02T16:54:17.423Z,-64
2022-10-02T16:59:26.041Z,-64
2022-10-02T17:05:03.523Z,-65
2022-10-02T17:10:20.543Z,-68
2022-10-02T17:15:40.654Z,-68
2022-10-02T17:20:56.197Z,-64
2022-10-02T17:25:58.780Z,-66
2022-10-02T17:31:00.907Z,-75
2022-10-02T17:36:19.634Z,-67
2022-10-02T17:41:42.428Z,-69
2022-10-02T17:47:08.673Z,-72
2022-10-02T17:52:35.113Z,-68
2022-10-02T17:58:13.077Z,-67
2022-10-02T18:03:55.718Z,-67
2022-10-02T18:09:12.886Z,-66
2022-10-02T18:14:21.004Z,-67
2022-10-02T18:19:27.980Z,-68
2022-10-02T18:24:46.102Z,-69
2022-10-02T18:29:59.901Z,-68
2022-10-02T18:35:24.224Z,-69
2022-10-02T18:40:37.074Z,-69
2022-10-02T18:45:56.021Z,-68
2022-10-02T18:51:01.139Z,-70
2022-10-02T18:56:08.587Z,-73
2022-10-02T19:01:16.581Z,-68
2022-10-02T19:06:27.680Z,-68
2022-10-02T19:11:39.050Z,-69
2022-10-02T19:16:59.283Z,-69
2022-10-02T19:22:09.644Z,-68
2022-10-02T19:27:44.635Z,-69
2022-10-02T19:32:55.118Z,-69
2022-10-02T19:38:12.717Z,-68
2022-10-02T19:43:26.597Z,-69
2022-10-02T19:48:30.962Z,-69
2022-10-02T19:53:40.922Z,-69
2022-10-02T19:58:49.796Z,-68
2022-10-02T20:04:03.600Z,-70
2022-10-02T20:09:08.459Z,-68
2022-10-02T20:14:17.478Z,-67
2022-10-02T20:19:34.482Z,-68
2022-10-02T20:24:45.261Z,-68
2022-10-02T20:29:52.802Z,-70
2022-10-02T20:35:02.835Z,-71
2022-10-02T20:40:17.065Z,-68
2022-10-02T20:45:23.444Z,-71
2022-10-02T20:50:40.506Z,-71
2022-10-02T20:55:45.260Z,-67
2022-10-02T21:00:56.836Z,-71
2022-10-02T21:06:46.870Z,-72
2022-10-02T21:12:04.077Z,-73
2022-10-02T21:17:08.904Z,-76
2022-10-02T21:22:23.182Z,-71
2022-10-02T21:28:03.507Z,-69
2022-10-02T21:33:14.422Z,-71
2022-10-02T21:38:28.178Z,-70
2022-10-02T21:43:33.471Z,-70
2022-10-02T21:48:50.671Z,-67
2022-10-02T21:54:02.106Z,-69
2022-10-02T21:59:19.563Z,-67
2022-10-02T22:04:52.621Z,-71
2022-10-02T22:10:30.267Z,-72
2022-10-02T22:15:50.698Z,-70
2022-10-02T22:21:11.445Z,-70
2022-10-02T22:26:46.879Z,-67
2022-10-02T22:32:34.402Z,-66
2022-10-02T22:37:54.894Z,-67
2022-10-02T22:43:04.979Z,-69
2022-10-02T22:48:14.552Z,-65
2022-10-02T22:53:35.489Z,-65
2022-10-02T22:58:44.392Z,-66
2022-10-02T23:04:01.745Z,-66
2022-10-02T23:09:30.036Z,-66
2022-10-02T23:14:53.130Z,-71
2022-10-02T23:20:19.928Z,-70
2022-10-02T23:25:30.616Z,-65
2022-10-02T23:30:40.778Z,-66
2022-10-02T23:35:45.516Z,-72
2022-10-02T23:41:26.540Z,-71
2022-10-02T23:47:00.039Z,-70
2022-10-02T23:52:37.907Z,-71
2022-10-02T23:58:13.415Z,-72
